createdAt,value
2017-09-08T00:01:45.155Z,82.70
2017-09-08T00:04:12.647Z,82.70
2017-09-08T00:06:40.164Z,83.00
2017-09-08T00:09:07.647Z,82.90
2017-09-08T00:11:36.122Z,82.80
2017-09-08T00:14:03.659Z,82.70
2017-09-08T00:16:31.175Z,82.80
2017-09-08T00:18:58.661Z,82.80
2017-09-08T00:21:26.180Z,83.00
2017-09-08T00:23:53.704Z,82.80
2017-09-08T00:26:21.251Z,83.00
2017-09-08T00:28:48.738Z,83.10
2017-09-08T00:31:16.240Z,82.80
2017-09-08T00:33:43.728Z,83.30
2017-09-08T00:36:11.239Z,83.40
2017-09-08T00:38:38.831Z,83.50
2017-09-08T00:41:06.342Z,83.80
2017-09-08T00:43:33.831Z,83.70
2017-09-08T00:46:01.849Z,83.50
2017-09-08T00:48:29.379Z,84.00
2017-09-08T00:50:56.924Z,83.90
2017-09-08T00:53:24.425Z,84.00
2017-09-08T00:55:52.893Z,84.30
2017-09-08T00:58:20.374Z,84.30
2017-09-08T01:00:47.906Z,84.20
2017-09-08T01:03:15.416Z,84.50
2017-09-08T01:05:42.984Z,84.60
2017-09-08T01:08:10.506Z,84.60
2017-09-08T01:10:38.064Z,84.60
2017-09-08T01:13:05.567Z,84.90
2017-09-08T01:15:33.070Z,84.90
2017-09-08T01:18:00.551Z,85.10
2017-09-08T01:20:28.083Z,85.20
2017-09-08T01:22:55.567Z,85.40
2017-09-08T01:25:23.094Z,85.70
2017-09-08T01:27:50.577Z,85.80
2017-09-08T01:30:18.110Z,85.90
2017-09-08T01:32:45.650Z,86.00
2017-09-08T01:35:13.168Z,86.00
2017-09-08T01:37:40.654Z,85.90
2017-09-08T01:40:08.164Z,85.60
2017-09-08T01:42:36.617Z,86.00
2017-09-08T01:45:04.124Z,85.60
2017-09-08T01:47:31.610Z,85.70
2017-09-08T01:50:00.062Z,86.00
2017-09-08T01:52:27.542Z,86.00
2017-09-08T01:54:57.007Z,85.90
2017-09-08T01:57:24.494Z,86.30
2017-09-08T01:59:52.020Z,86.30
2017-09-08T02:02:19.514Z,86.50
2017-09-08T02:04:47.046Z,86.30
2017-09-08T02:07:14.539Z,86.80
2017-09-08T02:09:42.046Z,86.50
2017-09-08T02:12:09.569Z,86.40
2017-09-08T02:14:38.041Z,86.40
2017-09-08T02:17:05.538Z,86.60
2017-09-08T02:19:33.467Z,86.60
2017-09-08T02:22:06.663Z,86.60
2017-09-08T02:24:35.063Z,86.00
2017-09-08T02:27:03.012Z,86.50
2017-09-08T02:29:30.517Z,86.50
2017-09-08T02:31:58.016Z,86.20
2017-09-08T02:34:25.514Z,86.30
2017-09-08T02:36:53.027Z,86.40
2017-09-08T02:39:20.521Z,86.80
2017-09-08T02:41:48.421Z,86.80
2017-09-08T02:44:15.936Z,86.80
2017-09-08T02:46:43.840Z,86.90
2017-09-08T02:49:11.346Z,86.90
2017-09-08T02:51:39.263Z,86.80
2017-09-08T02:54:06.757Z,86.80
2017-09-08T02:56:34.284Z,87.10
2017-09-08T02:59:01.796Z,87.00
2017-09-08T03:01:29.299Z,86.70
2017-09-08T03:03:56.811Z,86.90
2017-09-08T03:06:24.310Z,87.00
2017-09-08T03:08:53.776Z,87.10
2017-09-08T03:11:21.328Z,86.90
2017-09-08T03:13:50.043Z,87.00
2017-09-08T03:16:17.563Z,86.80
2017-09-08T03:18:45.080Z,87.30
2017-09-08T03:21:12.575Z,87.10
2017-09-08T03:23:40.105Z,87.50
2017-09-08T03:26:08.545Z,87.10
2017-09-08T03:28:36.078Z,87.20
2017-09-08T03:31:03.602Z,87.10
2017-09-08T03:33:33.066Z,87.20
2017-09-08T03:36:00.952Z,87.10
2017-09-08T03:38:29.452Z,87.10
2017-09-08T03:40:56.973Z,87.10
2017-09-08T03:43:24.482Z,86.80
2017-09-08T03:45:52.927Z,86.80
2017-09-08T03:48:20.436Z,86.80
2017-09-08T03:50:47.927Z,86.90
2017-09-08T03:53:16.354Z,87.00
2017-09-08T03:55:43.871Z,86.90
2017-09-08T03:58:11.369Z,86.80
2017-09-08T04:00:39.774Z,86.80
2017-09-08T04:03:07.658Z,87.00
2017-09-08T04:05:35.168Z,87.00
2017-09-08T04:08:03.597Z,86.80
2017-09-08T04:10:31.100Z,87.40
2017-09-08T04:12:59.571Z,87.00
2017-09-08T04:15:27.100Z,87.00
2017-09-08T04:17:54.596Z,87.20
2017-09-08T04:20:23.034Z,87.30
2017-09-08T04:22:50.527Z,87.30
2017-09-08T04:25:18.039Z,87.40
2017-09-08T04:27:47.522Z,87.50
2017-09-08T04:30:15.344Z,87.50
2017-09-08T04:32:42.851Z,87.40
2017-09-08T04:35:10.359Z,87.20
2017-09-08T04:37:37.867Z,87.30
2017-09-08T04:40:05.399Z,87.40
2017-09-08T04:42:32.933Z,87.00
2017-09-08T04:45:00.410Z,87.10
2017-09-08T04:47:27.923Z,86.60
2017-09-08T04:49:56.491Z,86.70
2017-09-08T04:52:25.987Z,87.00
2017-09-08T04:54:53.495Z,87.20
2017-09-08T04:57:21.016Z,87.10
2017-09-08T04:59:48.534Z,87.00
2017-09-08T05:02:16.863Z,86.80
2017-09-08T05:04:44.400Z,86.60
2017-09-08T05:07:11.914Z,86.60
2017-09-08T05:09:40.351Z,86.30
2017-09-08T05:12:08.255Z,86.60
2017-09-08T05:14:35.774Z,86.60
2017-09-08T05:17:03.270Z,86.60
2017-09-08T05:19:30.771Z,86.90
2017-09-08T05:21:58.287Z,86.80
2017-09-08T05:24:25.794Z,86.80
2017-09-08T05:26:53.298Z,87.00
2017-09-08T05:29:22.774Z,86.80
2017-09-08T05:31:50.280Z,86.90
2017-09-08T05:34:19.714Z,87.50
2017-09-08T05:36:47.449Z,87.40
2017-09-08T05:39:14.973Z,87.50
2017-09-08T05:41:42.472Z,87.30
2017-09-08T05:44:10.928Z,87.20
2017-09-08T05:46:39.355Z,87.20
2017-09-08T05:49:07.266Z,87.50
2017-09-08T05:51:34.747Z,87.50
2017-09-08T05:54:02.231Z,87.40
2017-09-08T05:56:29.779Z,87.30
2017-09-08T05:58:57.280Z,87.30
2017-09-08T06:01:25.715Z,87.30
2017-09-08T06:03:53.235Z,86.90
2017-09-08T06:06:20.735Z,87.30
2017-09-08T06:08:48.248Z,87.10
2017-09-08T06:11:15.735Z,86.80
2017-09-08T06:13:43.257Z,86.70
2017-09-08T06:16:11.670Z,86.60
2017-09-08T06:18:39.163Z,86.90
2017-09-08T06:21:06.671Z,86.80
2017-09-08T06:23:37.916Z,86.30
2017-09-08T06:26:05.822Z,86.40
2017-09-08T06:28:33.354Z,86.30
2017-09-08T06:31:00.852Z,86.20
2017-09-08T06:33:28.381Z,86.00
2017-09-08T06:35:55.913Z,86.10
2017-09-08T06:38:23.431Z,86.30
2017-09-08T06:40:50.975Z,86.10
2017-09-08T06:43:18.495Z,86.30
2017-09-08T06:45:45.987Z,86.10
2017-09-08T06:48:13.500Z,86.50
2017-09-08T06:50:40.986Z,86.40
2017-09-08T06:53:08.476Z,86.50
2017-09-08T06:55:35.999Z,86.60
2017-09-08T06:58:04.467Z,86.70
2017-09-08T07:00:32.656Z,86.40
2017-09-08T07:03:01.102Z,86.30
2017-09-08T07:05:28.606Z,86.30
2017-09-08T07:07:56.119Z,85.70
2017-09-08T07:10:23.624Z,85.60
2017-09-08T07:12:52.042Z,85.80
2017-09-08T07:15:20.487Z,86.20
2017-09-08T07:17:48.679Z,86.30
2017-09-08T07:20:18.121Z,85.90
2017-09-08T07:22:46.560Z,85.70
2017-09-08T07:25:14.066Z,85.70
2017-09-08T07:27:41.551Z,85.10
2017-09-08T07:30:09.062Z,85.10
2017-09-08T07:32:36.591Z,85.10
2017-09-08T07:35:04.094Z,84.70
2017-09-08T07:37:31.574Z,84.60
2017-09-08T07:39:59.090Z,84.20
2017-09-08T07:42:27.536Z,84.40
2017-09-08T07:44:55.052Z,83.60
2017-09-08T07:47:22.567Z,83.50
2017-09-08T07:49:50.240Z,83.60
2017-09-08T07:52:18.671Z,83.20
2017-09-08T07:54:46.186Z,83.60
2017-09-08T07:57:13.680Z,82.50
2017-09-08T07:59:41.201Z,83.00
2017-09-08T08:02:08.689Z,82.40
2017-09-08T08:04:36.210Z,82.70
2017-09-08T08:07:05.303Z,83.00
2017-09-08T08:09:32.814Z,83.00
2017-09-08T08:12:01.741Z,82.70
2017-09-08T08:14:29.376Z,82.70
2017-09-08T08:16:56.875Z,83.00
2017-09-08T08:19:24.388Z,82.60
2017-09-08T08:21:51.910Z,82.30
2017-09-08T08:24:20.236Z,82.60
2017-09-08T08:26:48.679Z,82.50
2017-09-08T08:29:17.542Z,82.80
2017-09-08T08:31:45.029Z,82.70
2017-09-08T08:34:12.543Z,81.90
2017-09-08T08:36:40.037Z,81.50
2017-09-08T08:39:08.391Z,81.50
2017-09-08T08:41:35.884Z,80.90
2017-09-08T08:44:03.803Z,80.80
2017-09-08T08:46:33.555Z,80.80
2017-09-08T08:49:01.074Z,80.90
2017-09-08T08:51:29.505Z,80.40
2017-09-08T08:53:57.021Z,80.40
2017-09-08T08:56:25.082Z,81.00
2017-09-08T08:58:52.588Z,79.90
2017-09-08T09:01:20.655Z,80.00
2017-09-08T09:03:49.563Z,79.90
2017-09-08T09:06:24.579Z,80.30
2017-09-08T09:08:56.670Z,79.60
2017-09-08T09:11:24.167Z,80.50
2017-09-08T09:13:54.798Z,80.70
2017-09-08T09:16:23.200Z,80.00
2017-09-08T09:18:53.153Z,80.20
2017-09-08T09:21:20.654Z,80.00
2017-09-08T09:23:48.176Z,79.80
2017-09-08T09:26:15.674Z,79.70
2017-09-08T09:28:43.192Z,79.70
2017-09-08T09:31:10.669Z,79.20
2017-09-08T09:33:40.127Z,79.10
2017-09-08T09:36:07.638Z,79.90
2017-09-08T09:38:35.171Z,80.50
2017-09-08T09:41:02.662Z,80.00
2017-09-08T09:43:30.154Z,79.70
2017-09-08T09:45:57.643Z,79.60
2017-09-08T09:48:26.111Z,79.70
2017-09-08T09:50:54.346Z,80.00
2017-09-08T09:53:21.856Z,79.30
2017-09-08T09:55:49.342Z,79.80
2017-09-08T09:58:16.847Z,78.70
2017-09-08T10:00:45.298Z,79.20
2017-09-08T10:03:13.322Z,79.40
2017-09-08T10:05:40.835Z,79.30
2017-09-08T10:08:08.735Z,79.00
2017-09-08T10:10:36.227Z,79.00
2017-09-08T10:13:03.712Z,79.70
2017-09-08T10:15:31.215Z,80.00
2017-09-08T10:17:58.790Z,79.80
2017-09-08T10:20:26.278Z,79.80
2017-09-08T10:22:53.990Z,80.50
2017-09-08T10:25:22.113Z,80.20
2017-09-08T10:27:49.606Z,80.30
2017-09-08T10:30:17.126Z,79.60
2017-09-08T10:32:44.659Z,80.50
2017-09-08T10:35:12.164Z,80.40
2017-09-08T10:37:39.686Z,80.10
2017-09-08T10:40:07.166Z,80.40
2017-09-08T10:42:37.039Z,81.00
2017-09-08T10:45:06.506Z,81.00
2017-09-08T10:47:33.998Z,80.70
2017-09-08T10:50:01.489Z,80.50
2017-09-08T10:52:29.009Z,80.20
2017-09-08T10:54:56.504Z,80.10
2017-09-08T10:57:24.419Z,80.90
2017-09-08T10:59:53.890Z,80.90
2017-09-08T11:02:21.401Z,80.30
2017-09-08T11:04:48.898Z,80.30
2017-09-08T11:07:16.462Z,79.10
2017-09-08T11:09:43.958Z,79.20
2017-09-08T11:12:12.234Z,78.90
2017-09-08T11:14:39.776Z,79.30
2017-09-08T11:17:07.271Z,79.50
2017-09-08T11:19:34.772Z,78.90
2017-09-08T11:22:02.422Z,78.50
2017-09-08T11:24:30.794Z,79.10
2017-09-08T11:26:58.774Z,78.50
2017-09-08T11:29:26.287Z,78.50
2017-09-08T11:31:55.259Z,79.40
2017-09-08T11:34:28.947Z,78.80
2017-09-08T11:37:02.211Z,78.30
2017-09-08T11:39:29.715Z,78.40
2017-09-08T11:41:57.263Z,78.50
2017-09-08T11:44:33.807Z,78.90
2017-09-08T11:47:02.457Z,78.80
2017-09-08T11:49:29.951Z,77.60
2017-09-08T11:51:57.474Z,78.00
2017-09-08T11:54:25.878Z,77.80
2017-09-08T11:56:53.763Z,78.60
2017-09-08T11:59:21.263Z,78.70
2017-09-08T12:01:52.544Z,79.10
2017-09-08T12:04:20.088Z,79.10
2017-09-08T12:06:47.632Z,79.10
2017-09-08T12:09:15.122Z,79.60
2017-09-08T12:11:43.529Z,79.80
2017-09-08T12:14:12.210Z,79.90
2017-09-08T12:16:40.435Z,80.00
2017-09-08T12:19:07.917Z,80.60
2017-09-08T12:21:36.147Z,79.90
2017-09-08T12:24:03.635Z,80.20
2017-09-08T12:26:31.515Z,81.20
2017-09-08T12:28:59.013Z,81.20
2017-09-08T12:31:33.995Z,80.80
2017-09-08T12:34:10.987Z,80.60
2017-09-08T12:36:42.735Z,80.60
2017-09-08T12:41:50.407Z,81.00
2017-09-08T12:44:17.996Z,80.60
2017-09-08T12:46:45.625Z,80.80
2017-09-08T12:49:13.280Z,80.80
2017-09-08T12:51:40.817Z,80.30
2017-09-08T12:54:08.440Z,80.60
2017-09-08T12:56:41.728Z,80.30
2017-09-08T12:59:15.230Z,80.50
2017-09-08T13:01:42.889Z,80.50
2017-09-08T13:04:10.550Z,80.40
2017-09-08T13:06:38.121Z,80.50
2017-09-08T13:09:32.697Z,81.00
2017-09-08T13:12:01.333Z,80.00
2017-09-08T13:17:37.297Z,79.50
2017-09-08T13:20:09.459Z,79.70
2017-09-08T13:22:41.563Z,79.10
2017-09-08T13:25:12.271Z,79.90
2017-09-08T13:28:10.031Z,79.30
2017-09-08T13:31:25.230Z,78.80
2017-09-08T13:33:54.632Z,78.80
2017-09-08T13:37:11.113Z,79.20
2017-09-08T13:39:38.933Z,79.00
2017-09-08T13:42:09.631Z,78.60
2017-09-08T13:44:37.170Z,79.00
2017-09-08T13:47:06.161Z,78.90
2017-09-08T13:49:33.892Z,78.70
2017-09-08T13:52:01.555Z,78.50
2017-09-08T13:54:29.254Z,78.50
2017-09-08T13:56:58.986Z,78.90
2017-09-08T13:59:26.632Z,78.50
2017-09-08T14:01:54.159Z,78.30
2017-09-08T14:04:22.800Z,78.80
2017-09-08T14:06:50.345Z,78.90
2017-09-08T14:09:26.717Z,79.00
2017-09-08T14:12:08.733Z,79.10
2017-09-08T14:14:37.072Z,78.60
2017-09-08T14:17:06.239Z,79.00
2017-09-08T14:19:33.839Z,78.30
2017-09-08T14:22:02.543Z,78.60
2017-09-08T14:24:30.210Z,77.80
2017-09-08T14:26:57.828Z,77.80
2017-09-08T14:29:34.414Z,77.80
2017-09-08T14:32:02.774Z,78.00
2017-09-08T14:34:37.109Z,78.30
2017-09-08T14:37:05.593Z,78.40
2017-09-08T14:39:35.461Z,78.70
2017-09-08T14:42:07.895Z,78.70
2017-09-08T14:44:37.447Z,78.40
2017-09-08T14:47:05.077Z,78.30
2017-09-08T14:49:33.308Z,78.50
2017-09-08T14:52:09.847Z,78.20
2017-09-08T14:54:37.672Z,77.80
2017-09-08T14:57:20.360Z,79.10
2017-09-08T14:59:49.031Z,78.30
2017-09-08T15:02:18.815Z,78.00
2017-09-08T15:04:46.445Z,78.60
2017-09-08T15:07:15.559Z,77.80
2017-09-08T15:09:44.613Z,77.90
2017-09-08T15:12:13.493Z,77.70
2017-09-08T15:14:42.766Z,78.10
2017-09-08T15:17:10.308Z,78.80
2017-09-08T15:19:39.297Z,77.70
2017-09-08T15:22:06.906Z,78.50
2017-09-08T15:24:36.352Z,77.80
2017-09-08T15:27:03.936Z,77.50
2017-09-08T15:29:31.536Z,77.80
2017-09-08T15:32:00.012Z,77.70
2017-09-08T15:34:27.548Z,77.50
2017-09-08T15:36:55.078Z,77.50
2017-09-08T15:39:22.585Z,77.30
2017-09-08T15:41:50.161Z,77.80
2017-09-08T15:44:18.586Z,77.70
2017-09-08T15:46:46.143Z,77.60
2017-09-08T15:49:13.648Z,77.50
2017-09-08T15:51:41.722Z,77.80
2017-09-08T15:54:11.053Z,78.50
2017-09-08T15:56:38.585Z,77.90
2017-09-08T15:59:06.151Z,78.20
2017-09-08T16:01:33.634Z,77.70
2017-09-08T16:04:02.298Z,77.50
2017-09-08T16:06:29.809Z,77.50
2017-09-08T16:08:57.331Z,77.50
2017-09-08T16:11:24.820Z,77.10
2017-09-08T16:13:52.323Z,77.10
2017-09-08T16:16:19.828Z,77.10
2017-09-08T16:18:47.347Z,77.10
2017-09-08T16:21:15.780Z,77.30
2017-09-08T16:23:43.282Z,77.10
2017-09-08T16:26:11.616Z,78.00
2017-09-08T16:28:40.324Z,77.90
2017-09-08T16:31:09.032Z,78.40
2017-09-08T16:33:36.694Z,77.90
2017-09-08T16:36:04.235Z,78.00
2017-09-08T16:38:33.074Z,77.80
2017-09-08T16:41:00.572Z,78.00
2017-09-08T16:43:28.067Z,77.70
2017-09-08T16:45:55.593Z,78.10
2017-09-08T16:48:23.124Z,77.90
2017-09-08T16:50:50.617Z,77.80
2017-09-08T16:53:18.113Z,78.20
2017-09-08T16:55:46.551Z,78.30
2017-09-08T16:58:14.096Z,78.00
2017-09-08T17:00:42.853Z,78.50
2017-09-08T17:03:10.368Z,78.10
2017-09-08T17:05:37.903Z,78.40
2017-09-08T17:08:05.387Z,78.60
2017-09-08T17:10:32.895Z,78.20
2017-09-08T17:13:00.457Z,78.60
2017-09-08T17:15:27.956Z,78.50
2017-09-08T17:17:55.461Z,78.90
2017-09-08T17:20:23.011Z,78.60
2017-09-08T17:22:50.528Z,78.70
2017-09-08T17:25:18.041Z,78.50
2017-09-08T17:27:45.599Z,78.50
2017-09-08T17:30:13.079Z,79.10
2017-09-08T17:32:40.635Z,81.90
2017-09-08T17:35:08.139Z,84.00
2017-09-08T17:37:36.038Z,85.40
2017-09-08T17:40:03.618Z,85.40
2017-09-08T17:42:31.151Z,85.80
2017-09-08T17:44:58.642Z,85.60
2017-09-08T17:47:26.163Z,85.70
2017-09-08T17:49:53.684Z,86.00
2017-09-08T17:52:21.234Z,85.50
2017-09-08T17:54:48.802Z,86.80
2017-09-08T17:57:16.320Z,85.80
2017-09-08T17:59:43.859Z,85.80
2017-09-08T18:02:11.353Z,86.20
2017-09-08T18:04:39.844Z,87.00
2017-09-08T18:07:07.394Z,86.00
2017-09-08T18:12:08.860Z,86.40
2017-09-08T18:14:36.337Z,85.80
2017-09-08T18:17:03.976Z,85.40
2017-09-08T18:19:31.582Z,85.50
2017-09-08T18:21:59.073Z,84.80
2017-09-08T18:24:26.622Z,84.90
2017-09-08T18:26:54.126Z,85.30
2017-09-08T18:29:21.663Z,85.40
2017-09-08T18:31:49.772Z,85.10
2017-09-08T18:34:18.443Z,85.10
2017-09-08T18:36:46.869Z,85.50
2017-09-08T18:39:14.381Z,85.40
2017-09-08T18:41:42.258Z,84.90
2017-09-08T18:44:10.906Z,84.80
2017-09-08T18:46:39.335Z,85.50
2017-09-08T18:49:06.838Z,84.70
2017-09-08T18:51:34.342Z,84.60
2017-09-08T18:54:01.846Z,84.40
2017-09-08T18:56:30.275Z,84.50
2017-09-08T18:58:57.823Z,84.20
2017-09-08T19:01:25.715Z,84.20
2017-09-08T19:03:56.432Z,84.20
2017-09-08T19:06:23.926Z,84.80
2017-09-08T19:08:51.451Z,84.30
2017-09-08T19:11:20.956Z,84.30
2017-09-08T19:13:48.535Z,84.60
2017-09-08T19:16:16.649Z,84.50
2017-09-08T19:18:44.146Z,84.10
2017-09-08T19:21:11.679Z,83.60
2017-09-08T19:23:39.177Z,83.80
2017-09-08T19:26:06.686Z,83.30
2017-09-08T19:28:34.222Z,83.70
2017-09-08T19:31:01.699Z,83.30
2017-09-08T19:33:29.281Z,83.40
2017-09-08T19:35:57.828Z,83.70
2017-09-08T19:38:26.193Z,83.40
2017-09-08T19:40:53.692Z,83.20
2017-09-08T19:43:21.231Z,82.90
2017-09-08T19:45:48.834Z,82.60
2017-09-08T19:48:17.030Z,82.40
2017-09-08T19:50:44.546Z,82.60
2017-09-08T19:53:12.050Z,83.00
2017-09-08T19:55:39.596Z,82.50
2017-09-08T19:58:07.113Z,82.30
2017-09-08T20:00:34.612Z,82.00
2017-09-08T20:03:02.131Z,82.00
2017-09-08T20:05:29.643Z,81.90
2017-09-08T20:07:57.141Z,81.90
2017-09-08T20:10:24.647Z,81.50
2017-09-08T20:12:52.154Z,81.60
2017-09-08T20:15:20.792Z,81.70
2017-09-08T20:17:49.219Z,81.50
2017-09-08T20:20:16.790Z,81.50
2017-09-08T20:22:44.352Z,81.80
2017-09-08T20:25:11.861Z,81.80
2017-09-08T20:27:39.512Z,82.00
2017-09-08T20:30:07.967Z,81.70
2017-09-08T20:32:35.852Z,81.60
2017-09-08T20:35:04.065Z,81.70
2017-09-08T20:37:33.489Z,81.60
2017-09-08T20:40:04.047Z,81.60
2017-09-08T20:45:06.405Z,81.40
2017-09-08T20:47:37.021Z,81.50
2017-09-08T20:50:04.649Z,81.30
2017-09-08T20:52:37.871Z,81.40
2017-09-08T20:55:05.530Z,81.40
2017-09-08T20:57:35.298Z,80.90
2017-09-08T21:00:05.573Z,81.60
2017-09-08T21:02:36.802Z,81.20
2017-09-08T21:05:05.476Z,81.10
2017-09-08T21:07:35.844Z,81.30
2017-09-08T21:10:04.219Z,81.50
2017-09-08T21:12:34.846Z,81.30
2017-09-08T21:15:16.537Z,81.50
2017-09-08T21:17:44.856Z,81.40
2017-09-08T21:20:13.129Z,80.90
2017-09-08T21:22:41.498Z,81.30
2017-09-08T21:25:09.162Z,81.00
2017-09-08T21:27:37.219Z,81.10
2017-09-08T21:30:05.473Z,81.30
2017-09-08T21:35:09.512Z,81.30
2017-09-08T21:38:13.266Z,81.00
2017-09-08T21:40:41.913Z,81.30
2017-09-08T21:43:12.075Z,80.70
2017-09-08T21:48:12.275Z,81.00
2017-09-08T21:50:42.223Z,80.80
2017-09-08T21:53:09.776Z,81.20
2017-09-08T21:55:39.606Z,81.20
2017-09-08T21:58:09.249Z,81.00
2017-09-08T22:00:44.391Z,81.00
2017-09-08T22:03:14.067Z,80.80
2017-09-08T22:05:46.855Z,80.90
2017-09-08T22:08:15.500Z,80.80
2017-09-08T22:10:47.110Z,81.00
2017-09-08T22:13:14.713Z,81.30
2017-09-08T22:15:43.051Z,81.20
2017-09-08T22:18:10.625Z,81.70
2017-09-08T22:20:39.792Z,81.20
2017-09-08T22:23:07.396Z,81.50
2017-09-08T22:25:37.097Z,81.20
2017-09-08T22:28:05.296Z,81.60
2017-09-08T22:30:38.099Z,81.70
2017-09-08T22:33:06.106Z,81.30
2017-09-08T22:35:35.950Z,81.30
2017-09-08T22:38:03.527Z,81.50
2017-09-08T22:40:32.462Z,81.50
2017-09-08T22:43:00.056Z,81.50
2017-09-08T22:45:28.468Z,81.50
2017-09-08T22:47:56.541Z,81.40
2017-09-08T22:50:25.132Z,81.40
2017-09-08T22:52:52.777Z,81.20
2017-09-08T22:55:25.075Z,81.40
2017-09-08T22:57:55.312Z,81.30
2017-09-08T23:00:25.101Z,81.40
2017-09-08T23:02:52.622Z,81.50
2017-09-08T23:05:21.943Z,81.30
2017-09-08T23:07:51.066Z,81.20
2017-09-08T23:10:18.615Z,80.90
2017-09-08T23:12:46.163Z,81.10
2017-09-08T23:15:14.735Z,81.00
2017-09-08T23:17:42.313Z,81.10
2017-09-08T23:20:12.220Z,81.10
2017-09-08T23:22:40.105Z,81.10
2017-09-08T23:25:08.941Z,81.30
2017-09-08T23:27:36.605Z,81.10
2017-09-08T23:30:05.009Z,81.20
2017-09-08T23:32:32.579Z,81.00
2017-09-08T23:35:00.135Z,80.80
2017-09-08T23:37:28.705Z,81.20
2017-09-08T23:39:56.379Z,82.00
2017-09-08T23:42:23.968Z,81.40
2017-09-08T23:44:53.142Z,81.30
2017-09-08T23:47:20.744Z,81.60
2017-09-08T23:49:48.630Z,81.30
2017-09-08T23:52:16.305Z,81.60
2017-09-08T23:54:43.985Z,81.30
2017-09-08T23:57:13.558Z,81.20
2017-09-08T23:59:43.307Z,81.30
